Time,TemperatureF,DewpointF,PressureIn,WindDirection,WindDirectionDegrees,WindSpeedMPH,WindSpeedGustMPH,Humidity,HourlyPrecipIn,Conditions,Clouds,dailyrainin,SoftwareType,DateUTC
2013-08-28 00:00:00,76.3,73.1,29.06,SSW,202,0.0,0.0,90,0.00,,,0.00,VWS V14.01,2013-08-28 05:00:00,
2013-08-28 00:05:00,76.1,73.0,29.06,SSW,202,0.0,0.0,90,0.00,,,0.00,VWS V14.01,2013-08-28 05:05:00,
2013-08-28 00:10:00,75.7,72.6,29.03,SSW,202,0.0,0.0,90,0.00,,,0.00,VWS V14.01,2013-08-28 05:10:00,
2013-08-28 00:15:00,75.6,72.4,29.03,SSW,202,0.0,0.0,90,0.00,,,0.00,VWS V14.01,2013-08-28 05:15:00,
2013-08-28 00:20:00,75.0,72.2,29.03,SSW,202,0.0,0.0,91,0.00,,,0.00,VWS V14.01,2013-08-28 05:20:00,
2013-08-28 00:25:00,74.7,71.9,29.06,SSW,202,0.0,0.0,91,0.00,,,0.00,VWS V14.01,2013-08-28 05:25:00,
2013-08-28 00:30:00,74.3,71.5,29.06,SSW,202,0.0,0.0,91,0.00,,,0.00,VWS V14.01,2013-08-28 05:30:00,
2013-08-28 00:36:00,73.9,71.2,29.06,SSW,202,0.0,0.0,91,0.00,,,0.00,VWS V14.01,2013-08-28 05:36:00,
2013-08-28 00:41:00,73.6,71.1,29.03,SSW,202,0.0,0.0,92,0.00,,,0.00,VWS V14.01,2013-08-28 05:41:00,
2013-08-28 00:46:00,73.4,71.3,29.03,SSW,202,0.0,0.0,93,0.00,,,0.00,VWS V14.01,2013-08-28 05:46:00,
2013-08-28 00:51:00,73.2,71.1,29.03,SSW,202,0.0,0.0,93,0.00,,,0.00,VWS V14.01,2013-08-28 05:51:00,
2013-08-28 00:56:00,72.9,70.7,29.03,SSW,202,0.0,0.0,93,0.00,,,0.00,VWS V14.01,2013-08-28 05:56:00,
2013-08-28 01:01:00,72.7,70.9,29.03,SSW,202,0.0,0.0,94,0.00,,,0.00,VWS V14.01,2013-08-28 06:01:00,
2013-08-28 01:06:00,72.5,70.7,29.03,SSW,202,0.0,0.0,94,0.00,,,0.00,VWS V14.01,2013-08-28 06:06:00,
2013-08-28 01:11:00,72.3,70.5,29.03,SSW,202,0.0,0.0,94,0.00,,,0.00,VWS V14.01,2013-08-28 06:11:00,
2013-08-28 01:16:00,72.1,70.3,29.03,SSW,202,0.0,0.0,94,0.00,,,0.00,VWS V14.01,2013-08-28 06:16:00,
2013-08-28 01:21:00,72.0,70.1,29.03,SSW,202,0.0,0.0,94,0.00,,,0.00,VWS V14.01,2013-08-28 06:21:00,
2013-08-28 01:27:00,72.0,70.4,29.03,SSW,202,0.0,0.0,95,0.00,,,0.00,VWS V14.01,2013-08-28 06:27:00,
2013-08-28 01:32:00,71.8,70.3,29.03,SSW,202,0.0,0.0,95,0.00,,,0.00,VWS V14.01,2013-08-28 06:32:00,
2013-08-28 01:37:00,71.6,70.1,29.03,SSW,202,0.0,0.0,95,0.00,,,0.00,VWS V14.01,2013-08-28 06:37:00,
2013-08-28 01:42:00,71.6,70.1,29.03,NW,315,0.0,0.0,95,0.00,,,0.00,VWS V14.01,2013-08-28 06:42:00,
2013-08-28 01:47:00,71.4,70.2,29.03,NW,315,0.0,0.0,96,0.00,,,0.00,VWS V14.01,2013-08-28 06:47:00,
2013-08-28 01:52:00,71.2,70.1,29.03,NW,315,0.0,0.0,96,0.00,,,0.00,VWS V14.01,2013-08-28 06:52:00,
2013-08-28 01:57:00,71.2,70.1,29.03,NW,315,0.0,0.0,96,0.00,,,0.00,VWS V14.01,2013-08-28 06:57:00,
2013-08-28 02:02:00,71.1,69.9,29.03,NW,315,0.0,0.0,96,0.00,,,0.00,VWS V14.01,2013-08-28 07:02:00,
2013-08-28 02:07:00,71.1,69.9,29.03,NW,315,0.0,0.0,96,0.00,,,0.00,VWS V14.01,2013-08-28 07:07:00,
2013-08-28 02:12:00,70.9,69.7,29.00,NW,315,0.0,0.0,96,0.00,,,0.00,VWS V14.01,2013-08-28 07:12:00,
2013-08-28 02:17:00,70.9,69.7,29.00,NW,315,0.0,0.0,96,0.00,,,0.00,VWS V14.01,2013-08-28 07:17:00,
2013-08-28 02:22:00,70.7,69.8,29.00,NW,315,0.0,0.0,97,0.00,,,0.00,VWS V14.01,2013-08-28 07:22:00,
2013-08-28 02:27:00,70.7,69.5,29.03,NW,315,0.0,0.0,96,0.00,,,0.00,VWS V14.01,2013-08-28 07:27:00,
2013-08-28 02:32:00,70.7,69.8,29.03,NW,315,0.0,0.0,97,0.00,,,0.00,VWS V14.01,2013-08-28 07:32:00,
2013-08-28 02:38:00,70.5,69.6,29.03,NW,315,0.0,0.0,97,0.00,,,0.00,VWS V14.01,2013-08-28 07:38:00,
2013-08-28 02:43:00,70.5,69.6,29.00,NW,315,0.0,0.0,97,0.00,,,0.00,VWS V14.01,2013-08-28 07:43:00,
2013-08-28 02:48:00,70.3,69.4,29.00,NW,315,0.0,0.0,97,0.00,,,0.00,VWS V14.01,2013-08-28 07:48:00,
2013-08-28 02:53:00,70.3,69.4,29.00,NW,315,0.0,0.0,97,0.00,,,0.00,VWS V14.01,2013-08-28 07:53:00,
2013-08-28 02:58:00,70.3,69.4,29.00,NW,315,0.0,0.0,97,0.00,,,0.00,VWS V14.01,2013-08-28 07:58:00,
2013-08-28 03:03:00,70.2,69.3,29.00,NW,315,0.0,0.0,97,0.00,,,0.00,VWS V14.01,2013-08-28 08:03:00,
2013-08-28 03:08:00,70.2,69.3,29.03,NW,315,0.0,0.0,97,0.00,,,0.00,VWS V14.01,2013-08-28 08:08:00,
2013-08-28 03:13:00,70.0,69.1,29.03,NW,315,0.0,0.0,97,0.00,,,0.00,VWS V14.01,2013-08-28 08:13:00,
2013-08-28 03:18:00,70.0,69.1,29.03,NW,315,0.0,0.0,97,0.00,,,0.00,VWS V14.01,2013-08-28 08:18:00,
2013-08-28 03:23:00,69.8,68.9,29.03,NW,315,0.0,0.0,97,0.00,,,0.00,VWS V14.01,2013-08-28 08:23:00,
2013-08-28 03:28:00,69.8,68.9,29.03,NW,315,0.0,0.0,97,0.00,,,0.00,VWS V14.01,2013-08-28 08:28:00,
2013-08-28 03:33:00,69.6,68.7,29.03,NW,315,0.0,0.0,97,0.00,,,0.00,VWS V14.01,2013-08-28 08:33:00,
2013-08-28 03:38:00,69.4,68.6,29.03,NW,315,0.0,0.0,97,0.00,,,0.00,VWS V14.01,2013-08-28 08:38:00,
2013-08-28 03:43:00,69.3,68.4,29.03,NW,315,0.0,0.0,97,0.00,,,0.00,VWS V14.01,2013-08-28 08:43:00,
2013-08-28 03:48:00,69.3,68.4,29.03,NW,315,0.0,0.0,97,0.00,,,0.00,VWS V14.01,2013-08-28 08:48:00,
2013-08-28 03:53:00,69.1,68.2,29.03,NW,315,0.0,0.0,97,0.00,,,0.00,VWS V14.01,2013-08-28 08:53:00,
2013-08-28 03:59:00,69.1,68.5,29.03,NW,315,0.0,0.0,98,0.00,,,0.00,VWS V14.01,2013-08-28 08:59:00,
2013-08-28 04:02:00,69.1,68.5,29.06,NW,315,0.0,0.0,98,0.00,,,0.00,VWS V14.01,2013-08-28 09:02:00,
2013-08-28 04:04:00,69.1,68.5,29.03,NW,315,0.0,0.0,98,0.00,,,0.00,VWS V14.01,2013-08-28 09:04:00,
2013-08-28 04:09:00,69.3,68.7,29.03,NW,315,0.0,0.0,98,0.00,,,0.00,VWS V14.01,2013-08-28 09:09:00,
2013-08-28 04:14:00,69.3,68.7,29.03,NW,315,0.0,0.0,98,0.00,,,0.00,VWS V14.01,2013-08-28 09:14:00,
2013-08-28 04:19:00,69.3,68.7,29.03,NW,315,0.0,0.0,98,0.00,,,0.00,VWS V14.01,2013-08-28 09:19:00,
2013-08-28 04:24:00,69.3,68.7,29.06,NW,315,0.0,0.0,98,0.00,,,0.00,VWS V14.01,2013-08-28 09:24:00,
2013-08-28 04:29:00,69.1,68.5,29.06,NW,315,0.0,0.0,98,0.00,,,0.00,VWS V14.01,2013-08-28 09:29:00,
2013-08-28 04:34:00,69.1,68.5,29.06,NW,315,0.0,0.0,98,0.00,,,0.00,VWS V14.01,2013-08-28 09:34:00,
2013-08-28 04:36:00,69.1,68.5,29.06,NW,315,0.0,0.0,98,0.00,,,0.00,VWS V14.01,2013-08-28 09:36:00,
2013-08-28 04:41:00,68.9,68.3,29.03,NW,315,0.0,0.0,98,0.00,,,0.00,VWS V14.01,2013-08-28 09:41:00,
2013-08-28 04:47:00,68.9,68.3,29.03,NW,315,0.0,0.0,98,0.00,,,0.00,VWS V14.01,2013-08-28 09:47:00,
2013-08-28 04:52:00,68.9,68.3,29.03,NW,315,0.0,0.0,98,0.00,,,0.00,VWS V14.01,2013-08-28 09:52:00,
2013-08-28 04:57:00,68.7,68.1,29.03,NW,315,0.0,0.0,98,0.00,,,0.00,VWS V14.01,2013-08-28 09:57:00,
2013-08-28 05:02:00,68.7,68.1,29.03,NW,315,0.0,0.0,98,0.00,,,0.00,VWS V14.01,2013-08-28 10:02:00,
2013-08-28 05:07:00,68.5,68.0,29.03,NW,315,0.0,0.0,98,0.00,,,0.00,VWS V14.01,2013-08-28 10:07:00,
2013-08-28 05:12:00,68.4,67.8,29.06,NW,315,0.0,0.0,98,0.00,,,0.00,VWS V14.01,2013-08-28 10:12:00,
2013-08-28 05:17:00,68.2,67.6,29.06,NW,315,0.0,0.0,98,0.00,,,0.00,VWS V14.01,2013-08-28 10:17:00,
2013-08-28 05:22:00,68.0,67.4,29.06,NW,315,0.0,0.0,98,0.00,,,0.00,VWS V14.01,2013-08-28 10:22:00,
2013-08-28 05:27:00,67.8,67.2,29.06,NW,315,0.0,0.0,98,0.00,,,0.00,VWS V14.01,2013-08-28 10:27:00,
2013-08-28 05:32:00,67.8,67.2,29.06,NW,315,0.0,0.0,98,0.00,,,0.00,VWS V14.01,2013-08-28 10:32:00,
2013-08-28 05:37:00,67.6,67.1,29.06,NW,315,0.0,0.0,98,0.00,,,0.00,VWS V14.01,2013-08-28 10:37:00,
2013-08-28 05:42:00,67.6,67.1,29.09,NW,315,0.0,0.0,98,0.00,,,0.00,VWS V14.01,2013-08-28 10:42:00,
2013-08-28 05:47:00,67.5,66.9,29.09,NW,315,0.0,0.0,98,0.00,,,0.00,VWS V14.01,2013-08-28 10:47:00,
2013-08-28 05:52:00,67.5,66.9,29.09,NNW,338,0.0,0.0,98,0.00,,,0.00,VWS V14.01,2013-08-28 10:52:00,
2013-08-28 05:57:00,67.5,66.9,29.09,NNW,338,0.0,0.0,98,0.00,,,0.00,VWS V14.01,2013-08-28 10:57:00,
2013-08-28 06:02:00,67.5,66.9,29.09,NNW,338,0.0,0.0,98,0.00,,,0.00,VWS V14.01,2013-08-28 11:02:00,
2013-08-28 06:07:00,67.5,66.9,29.09,NNW,338,0.0,0.0,98,0.00,,,0.00,VWS V14.01,2013-08-28 11:07:00,
2013-08-28 06:13:00,67.5,66.9,29.09,NNW,338,0.0,0.0,98,0.00,,,0.00,VWS V14.01,2013-08-28 11:13:00,
2013-08-28 06:18:00,67.5,66.9,29.09,NNW,338,0.0,0.0,98,0.00,,,0.00,VWS V14.01,2013-08-28 11:18:00,
2013-08-28 06:23:00,67.6,67.1,29.09,NNW,338,0.0,0.0,98,0.00,,,0.00,VWS V14.01,2013-08-28 11:23:00,
2013-08-28 06:28:00,67.6,67.1,29.09,NNW,338,0.0,0.0,98,0.00,,,0.00,VWS V14.01,2013-08-28 11:28:00,
2013-08-28 06:33:00,67.8,67.2,29.09,NNW,338,0.0,0.0,98,0.00,,,0.00,VWS V14.01,2013-08-28 11:33:00,
2013-08-28 06:38:00,67.8,67.2,29.09,NNW,338,0.0,0.0,98,0.00,,,0.00,VWS V14.01,2013-08-28 11:38:00,
2013-08-28 06:43:00,68.7,68.1,29.09,NNW,338,0.0,0.0,98,0.00,,,0.00,VWS V14.01,2013-08-28 11:43:00,
2013-08-28 06:48:00,68.9,68.3,29.09,NNW,338,0.0,0.0,98,0.00,,,0.00,VWS V14.01,2013-08-28 11:48:00,
2013-08-28 06:53:00,69.3,68.7,29.06,NNW,338,0.0,0.0,98,0.00,,,0.00,VWS V14.01,2013-08-28 11:53:00,
2013-08-28 06:58:00,69.3,68.7,29.06,NNW,338,0.0,0.0,98,0.00,,,0.00,VWS V14.01,2013-08-28 11:58:00,
2013-08-28 07:03:00,69.6,69.0,29.06,NNW,338,0.0,0.0,98,0.00,,,0.00,VWS V14.01,2013-08-28 12:03:00,
2013-08-28 07:08:00,70.0,69.4,29.06,NNW,338,0.0,0.0,98,0.00,,,0.00,VWS V14.01,2013-08-28 12:08:00,
2013-08-28 07:13:00,70.0,69.4,29.09,NNW,338,0.0,0.0,98,0.00,,,0.00,VWS V14.01,2013-08-28 12:13:00,
2013-08-28 07:18:00,70.2,69.6,29.09,NNW,338,0.0,0.0,98,0.00,,,0.00,VWS V14.01,2013-08-28 12:18:00,
2013-08-28 07:23:00,70.2,69.6,29.09,East,90,2.2,2.2,98,0.00,,,0.00,VWS V14.01,2013-08-28 12:23:00,
2013-08-28 07:28:00,70.3,69.8,29.09,East,90,2.2,2.2,98,0.00,,,0.00,VWS V14.01,2013-08-28 12:28:00,
2013-08-28 07:33:00,70.3,69.8,29.09,East,90,2.2,2.2,98,0.00,,,0.00,VWS V14.01,2013-08-28 12:33:00,
2013-08-28 07:39:00,70.5,69.9,29.12,ENE,68,0.0,0.0,98,0.00,,,0.00,VWS V14.01,2013-08-28 12:39:00,
2013-08-28 07:44:00,70.5,69.9,29.12,ENE,68,1.6,1.6,98,0.00,,,0.00,VWS V14.01,2013-08-28 12:44:00,
2013-08-28 07:49:00,70.5,69.9,29.12,ENE,68,1.6,1.6,98,0.00,,,0.00,VWS V14.01,2013-08-28 12:49:00,
2013-08-28 07:54:00,70.7,70.1,29.12,WSW,248,1.1,1.1,98,0.00,,,0.00,VWS V14.01,2013-08-28 12:54:00,
2013-08-28 07:59:00,70.7,70.1,29.12,ENE,68,1.6,1.6,98,0.00,,,0.00,VWS V14.01,2013-08-28 12:59:00,
2013-08-28 08:04:00,70.9,70.3,29.12,ENE,68,1.6,1.6,98,0.00,,,0.00,VWS V14.01,2013-08-28 13:04:00,
2013-08-28 08:09:00,70.9,70.3,29.12,NNE,22,0.0,2.0,98,0.00,,,0.00,VWS V14.01,2013-08-28 13:09:00,
2013-08-28 08:14:00,70.9,70.3,29.12,NNE,22,1.3,1.6,98,0.00,,,0.00,VWS V14.01,2013-08-28 13:14:00,
2013-08-28 08:19:00,71.1,70.5,29.12,NNE,22,1.3,1.3,98,0.00,,,0.00,VWS V14.01,2013-08-28 13:19:00,
2013-08-28 08:24:00,71.1,70.5,29.12,NNE,22,1.3,1.3,98,0.00,,,0.00,VWS V14.01,2013-08-28 13:24:00,
2013-08-28 08:29:00,71.1,70.5,29.12,NNE,22,1.3,1.3,98,0.00,,,0.00,VWS V14.01,2013-08-28 13:29:00,
2013-08-28 08:34:00,71.2,70.3,29.12,ENE,68,2.9,2.9,97,0.00,,,0.00,VWS V14.01,2013-08-28 13:34:00,
2013-08-28 08:39:00,71.4,70.5,29.12,ENE,68,2.9,2.9,97,0.00,,,0.00,VWS V14.01,2013-08-28 13:39:00,
2013-08-28 08:44:00,71.4,70.5,29.12,NE,45,2.2,2.9,97,0.00,,,0.00,VWS V14.01,2013-08-28 13:44:00,
2013-08-28 08:49:00,71.8,70.9,29.12,ENE,68,1.3,2.9,97,0.00,,,0.00,VWS V14.01,2013-08-28 13:49:00,
2013-08-28 08:55:00,71.8,70.9,29.12,ENE,68,2.5,2.5,97,0.00,,,0.00,VWS V14.01,2013-08-28 13:55:00,
2013-08-28 09:00:00,71.8,70.9,29.12,ENE,68,2.5,2.5,97,0.00,,,0.00,VWS V14.01,2013-08-28 14:00:00,
2013-08-28 09:05:00,72.1,71.2,29.12,ENE,68,2.7,2.7,97,0.00,,,0.00,VWS V14.01,2013-08-28 14:05:00,
2013-08-28 09:10:00,72.3,71.1,29.12,ENE,68,2.7,2.7,96,0.00,,,0.00,VWS V14.01,2013-08-28 14:10:00,
2013-08-28 09:15:00,72.3,71.1,29.12,ENE,68,3.6,3.6,96,0.00,,,0.00,VWS V14.01,2013-08-28 14:15:00,
2013-08-28 09:20:00,72.3,71.1,29.12,ENE,68,2.2,2.2,96,0.00,,,0.00,VWS V14.01,2013-08-28 14:20:00,
2013-08-28 09:25:00,72.5,71.3,29.12,ENE,68,2.2,2.2,96,0.00,,,0.00,VWS V14.01,2013-08-28 14:25:00,
2013-08-28 09:30:00,72.9,71.7,29.12,ENE,68,2.2,2.2,96,0.00,,,0.00,VWS V14.01,2013-08-28 14:30:00,
2013-08-28 09:35:00,72.9,71.3,29.12,ENE,68,2.2,2.2,95,0.00,,,0.00,VWS V14.01,2013-08-28 14:35:00,
2013-08-28 09:40:00,72.9,71.3,29.14,ENE,68,2.2,2.2,95,0.00,,,0.00,VWS V14.01,2013-08-28 14:40:00,
2013-08-28 09:45:00,72.9,71.3,29.14,ENE,68,2.9,2.9,95,0.00,,,0.00,VWS V14.01,2013-08-28 14:45:00,
2013-08-28 09:50:00,73.0,71.5,29.14,ENE,68,2.9,2.9,95,0.00,,,0.00,VWS V14.01,2013-08-28 14:50:00,
2013-08-28 09:55:00,73.2,71.7,29.14,ENE,68,2.9,2.9,95,0.00,,,0.00,VWS V14.01,2013-08-28 14:55:00,
2013-08-28 10:00:00,73.8,71.9,29.14,ENE,68,2.9,2.9,94,0.00,,,0.00,VWS V14.01,2013-08-28 15:00:00,
2013-08-28 10:05:00,74.7,72.8,29.14,East,90,3.6,3.6,94,0.00,,,0.00,VWS V14.01,2013-08-28 15:05:00,
2013-08-28 10:10:00,75.6,73.4,29.14,ENE,68,1.3,1.3,93,0.00,,,0.00,VWS V14.01,2013-08-28 15:10:00,
2013-08-28 10:15:00,75.6,73.1,29.14,ENE,68,1.3,1.3,92,0.00,,,0.00,VWS V14.01,2013-08-28 15:15:00,
2013-08-28 10:20:00,75.6,73.1,29.14,ENE,68,1.3,1.3,92,0.00,,,0.00,VWS V14.01,2013-08-28 15:20:00,
2013-08-28 10:26:00,75.6,73.1,29.14,South,180,1.3,2.7,92,0.00,,,0.00,VWS V14.01,2013-08-28 15:26:00,
2013-08-28 10:31:00,76.1,73.6,29.14,SE,135,2.7,2.7,92,0.00,,,0.00,VWS V14.01,2013-08-28 15:31:00,
2013-08-28 10:36:00,76.8,74.0,29.14,ESE,112,2.2,2.2,91,0.00,,,0.00,VWS V14.01,2013-08-28 15:36:00,
2013-08-28 10:41:00,77.4,73.9,29.14,South,180,1.6,1.6,89,0.00,,,0.00,VWS V14.01,2013-08-28 15:41:00,
2013-08-28 10:46:00,77.4,73.9,29.14,South,180,1.6,1.6,89,0.00,,,0.00,VWS V14.01,2013-08-28 15:46:00,
2013-08-28 10:51:00,77.9,74.1,29.14,ESE,112,1.6,1.6,88,0.00,,,0.00,VWS V14.01,2013-08-28 15:51:00,
2013-08-28 10:56:00,77.9,73.7,29.14,ENE,68,4.0,4.0,87,0.00,,,0.00,VWS V14.01,2013-08-28 15:56:00,
2013-08-28 11:01:00,77.7,73.6,29.14,ENE,68,4.0,4.0,87,0.00,,,0.00,VWS V14.01,2013-08-28 16:01:00,
2013-08-28 11:06:00,77.5,73.0,29.14,ENE,68,4.0,4.0,86,0.00,,,0.00,VWS V14.01,2013-08-28 16:06:00,
2013-08-28 11:11:00,77.7,73.2,29.14,ENE,68,4.0,4.0,86,0.00,,,0.00,VWS V14.01,2013-08-28 16:11:00,
2013-08-28 11:16:00,77.9,73.4,29.14,ENE,68,1.1,4.0,86,0.00,,,0.00,VWS V14.01,2013-08-28 16:16:00,
2013-08-28 11:21:00,78.3,73.4,29.14,NNE,22,2.9,2.9,85,0.00,,,0.00,VWS V14.01,2013-08-28 16:21:00,
2013-08-28 11:26:00,78.4,73.6,29.14,NNE,22,2.9,2.9,85,0.00,,,0.00,VWS V14.01,2013-08-28 16:26:00,
2013-08-28 11:31:00,78.6,73.7,29.14,SSE,158,1.6,1.6,85,0.00,,,0.00,VWS V14.01,2013-08-28 16:31:00,
2013-08-28 11:36:00,78.3,72.7,29.14,SSE,158,1.6,1.6,83,0.00,,,0.00,VWS V14.01,2013-08-28 16:36:00,
2013-08-28 11:41:00,78.4,73.2,29.17,SSE,158,1.6,1.6,84,0.00,,,0.00,VWS V14.01,2013-08-28 16:41:00,
2013-08-28 11:46:00,78.6,72.7,29.17,East,90,2.7,2.7,82,0.00,,,0.00,VWS V14.01,2013-08-28 16:46:00,
2013-08-28 11:52:00,78.6,72.3,29.17,East,90,2.7,2.7,81,0.00,,,0.00,VWS V14.01,2013-08-28 16:52:00,
2013-08-28 11:57:00,78.4,72.5,29.17,ENE,68,1.3,2.7,82,0.00,,,0.00,VWS V14.01,2013-08-28 16:57:00,
2013-08-28 12:02:00,78.6,73.0,29.17,South,180,1.6,2.2,83,0.00,,,0.00,VWS V14.01,2013-08-28 17:02:00,
2013-08-28 12:07:00,78.6,72.7,29.17,South,180,2.2,2.2,82,0.00,,,0.00,VWS V14.01,2013-08-28 17:07:00,
2013-08-28 12:12:00,78.6,72.7,29.14,SE,135,4.7,4.7,82,0.00,,,0.00,VWS V14.01,2013-08-28 17:12:00,
2013-08-28 12:17:00,78.4,72.5,29.14,SE,135,4.7,4.7,82,0.00,,,0.00,VWS V14.01,2013-08-28 17:17:00,
2013-08-28 12:22:00,78.4,72.5,29.14,SSE,158,1.1,4.7,82,0.00,,,0.00,VWS V14.01,2013-08-28 17:22:00,
2013-08-28 12:27:00,78.6,72.7,29.14,South,180,0.0,1.6,82,0.00,,,0.00,VWS V14.01,2013-08-28 17:27:00,
2013-08-28 12:32:00,78.6,72.7,29.14,South,180,0.0,0.0,82,0.00,,,0.00,VWS V14.01,2013-08-28 17:32:00,
2013-08-28 12:37:00,78.8,72.5,29.14,ENE,68,2.2,2.2,81,0.00,,,0.00,VWS V14.01,2013-08-28 17:37:00,
2013-08-28 12:42:00,79.2,72.8,29.12,North,0,0.0,2.2,81,0.00,,,0.00,VWS V14.01,2013-08-28 17:42:00,
2013-08-28 12:47:00,79.5,73.2,29.12,North,0,0.0,0.0,81,0.00,,,0.00,VWS V14.01,2013-08-28 17:47:00,
2013-08-28 12:52:00,79.9,73.2,29.12,SW,225,1.1,3.6,80,0.00,,,0.00,VWS V14.01,2013-08-28 17:52:00,
2013-08-28 12:57:00,80.2,73.1,29.12,South,180,2.2,2.2,79,0.00,,,0.00,VWS V14.01,2013-08-28 17:57:00,
2013-08-28 13:02:00,80.2,72.8,29.12,SSW,202,0.0,2.5,78,0.00,,,0.00,VWS V14.01,2013-08-28 18:02:00,
2013-08-28 13:07:00,80.6,73.1,29.17,NE,45,2.2,3.8,78,0.00,,,0.00,VWS V14.01,2013-08-28 18:07:00,
2013-08-28 13:12:00,81.1,73.2,29.17,South,180,1.6,3.1,77,0.00,,,0.00,VWS V14.01,2013-08-28 18:12:00,
2013-08-28 13:17:00,81.5,72.8,29.17,South,180,2.7,3.4,75,0.00,,,0.00,VWS V14.01,2013-08-28 18:17:00,
2013-08-28 13:23:00,81.7,73.4,29.17,ENE,68,3.1,3.1,76,0.00,,,0.00,VWS V14.01,2013-08-28 18:23:00,
2013-08-28 13:28:00,81.7,73.0,29.14,ENE,68,2.9,2.9,75,0.00,,,0.00,VWS V14.01,2013-08-28 18:28:00,
2013-08-28 13:33:00,81.9,72.8,29.14,West,270,3.4,3.4,74,0.00,,,0.00,VWS V14.01,2013-08-28 18:33:00,
2013-08-28 13:38:00,82.2,73.5,29.14,NE,45,2.0,3.1,75,0.00,,,0.00,VWS V14.01,2013-08-28 18:38:00,
2013-08-28 13:43:00,82.2,73.1,29.14,ENE,68,1.6,4.0,74,0.00,,,0.00,VWS V14.01,2013-08-28 18:43:00,
2013-08-28 13:48:00,82.6,72.7,29.14,NNW,338,0.0,5.6,72,0.00,,,0.00,VWS V14.01,2013-08-28 18:48:00,
2013-08-28 13:53:00,82.9,73.0,29.14,ENE,68,2.5,4.7,72,0.00,,,0.00,VWS V14.01,2013-08-28 18:53:00,
2013-08-28 13:58:00,83.5,73.5,29.14,North,0,1.6,4.0,72,0.00,,,0.00,VWS V14.01,2013-08-28 18:58:00,
2013-08-28 14:03:00,83.3,72.9,29.14,NW,315,0.0,3.1,71,0.00,,,0.00,VWS V14.01,2013-08-28 19:03:00,
2013-08-28 14:08:00,83.3,72.9,29.14,ESE,112,0.9,3.1,71,0.00,,,0.00,VWS V14.01,2013-08-28 19:08:00,
2013-08-28 14:13:00,84.0,73.6,29.14,WSW,248,0.0,3.1,71,0.00,,,0.00,VWS V14.01,2013-08-28 19:13:00,
2013-08-28 14:18:00,84.2,73.4,29.14,SSW,202,1.1,3.8,70,0.00,,,0.00,VWS V14.01,2013-08-28 19:18:00,
2013-08-28 14:23:00,84.6,72.8,29.14,North,0,4.0,4.7,68,0.00,,,0.00,VWS V14.01,2013-08-28 19:23:00,
2013-08-28 14:28:00,85.6,74.3,29.14,WNW,292,1.1,2.5,69,0.00,,,0.00,VWS V14.01,2013-08-28 19:28:00,
2013-08-28 14:33:00,86.0,73.8,29.14,NNE,22,1.1,7.4,67,0.00,,,0.00,VWS V14.01,2013-08-28 19:33:00,
2013-08-28 14:38:00,86.2,73.5,29.14,SSW,202,2.7,6.5,66,0.00,,,0.00,VWS V14.01,2013-08-28 19:38:00,
2013-08-28 14:43:00,86.5,74.3,29.14,East,90,1.1,3.4,67,0.00,,,0.00,VWS V14.01,2013-08-28 19:43:00,
2013-08-28 14:48:00,86.2,73.0,29.14,NW,315,1.3,3.8,65,0.00,,,0.00,VWS V14.01,2013-08-28 19:48:00,
2013-08-28 14:54:00,85.5,72.8,29.14,South,180,2.7,4.0,66,0.00,,,0.00,VWS V14.01,2013-08-28 19:54:00,
2013-08-28 14:59:00,85.5,72.8,29.14,NNW,338,2.0,3.6,66,0.00,,,0.00,VWS V14.01,2013-08-28 19:59:00,
2013-08-28 15:04:00,86.2,73.5,29.14,NW,315,1.1,3.6,66,0.00,,,0.00,VWS V14.01,2013-08-28 20:04:00,
2013-08-28 15:09:00,87.1,73.4,29.14,SE,135,2.7,3.4,64,0.00,,,0.00,VWS V14.01,2013-08-28 20:09:00,
2013-08-28 15:14:00,87.1,73.4,29.14,NE,45,1.6,3.4,64,0.00,,,0.00,VWS V14.01,2013-08-28 20:14:00,
2013-08-28 15:19:00,87.4,73.3,29.14,SSW,202,1.1,3.1,63,0.00,,,0.00,VWS V14.01,2013-08-28 20:19:00,
2013-08-28 15:24:00,87.4,73.3,29.12,SE,135,1.3,2.9,63,0.00,,,0.00,VWS V14.01,2013-08-28 20:24:00,
2013-08-28 15:29:00,87.1,73.0,29.12,East,90,0.0,2.7,63,0.00,,,0.00,VWS V14.01,2013-08-28 20:29:00,
2013-08-28 15:34:00,86.7,72.6,29.12,East,90,1.6,1.6,63,0.00,,,0.00,VWS V14.01,2013-08-28 20:34:00,
2013-08-28 15:39:00,86.7,72.6,29.12,East,90,0.0,1.6,63,0.00,,,0.00,VWS V14.01,2013-08-28 20:39:00,
2013-08-28 15:44:00,86.9,72.3,29.12,East,90,1.3,2.2,62,0.00,,,0.00,VWS V14.01,2013-08-28 20:44:00,
2013-08-28 15:49:00,86.9,72.3,29.12,East,90,1.3,2.9,62,0.00,,,0.00,VWS V14.01,2013-08-28 20:49:00,
2013-08-28 15:54:00,87.4,72.8,29.14,NW,315,1.6,4.0,62,0.00,,,0.00,VWS V14.01,2013-08-28 20:54:00,
2013-08-28 15:59:00,87.3,72.2,29.14,West,270,5.6,5.6,61,0.00,,,0.00,VWS V14.01,2013-08-28 20:59:00,
2013-08-28 16:04:00,87.3,72.2,29.14,SSE,158,2.9,3.8,61,0.00,,,0.00,VWS V14.01,2013-08-28 21:04:00,
2013-08-28 16:09:00,87.4,71.4,29.14,NW,315,1.6,2.9,59,0.00,,,0.00,VWS V14.01,2013-08-28 21:09:00,
2013-08-28 16:14:00,88.2,72.5,29.14,North,0,0.0,2.7,60,0.00,,,0.00,VWS V14.01,2013-08-28 21:14:00,
2013-08-28 16:19:00,88.3,72.7,29.14,South,180,0.9,2.0,60,0.00,,,0.00,VWS V14.01,2013-08-28 21:19:00,
2013-08-28 16:25:00,87.8,71.7,29.12,South,180,0.9,0.9,59,0.00,,,0.00,VWS V14.01,2013-08-28 21:25:00,
2013-08-28 16:30:00,86.9,71.3,29.12,SE,135,2.0,2.0,60,0.00,,,0.00,VWS V14.01,2013-08-28 21:30:00,
2013-08-28 16:35:00,87.1,72.5,29.12,East,90,0.0,2.0,62,0.00,,,0.00,VWS V14.01,2013-08-28 21:35:00,
2013-08-28 16:40:00,87.3,72.2,29.12,NE,45,2.5,2.5,61,0.00,,,0.00,VWS V14.01,2013-08-28 21:40:00,
2013-08-28 16:45:00,87.4,72.8,29.12,ENE,68,1.3,2.5,62,0.00,,,0.00,VWS V14.01,2013-08-28 21:45:00,
2013-08-28 16:50:00,87.3,72.7,29.12,SSW,202,1.6,2.2,62,0.00,,,0.00,VWS V14.01,2013-08-28 21:50:00,
2013-08-28 16:55:00,87.3,72.7,29.12,East,90,2.5,2.7,62,0.00,,,0.00,VWS V14.01,2013-08-28 21:55:00,
2013-08-28 17:00:00,87.1,73.0,29.12,East,90,1.1,2.0,63,0.00,,,0.00,VWS V14.01,2013-08-28 22:00:00,
2013-08-28 17:05:00,87.3,73.1,29.12,SW,225,0.0,0.0,63,0.00,,,0.00,VWS V14.01,2013-08-28 22:05:00,
2013-08-28 17:10:00,87.4,72.8,29.12,SW,225,1.1,1.1,62,0.00,,,0.00,VWS V14.01,2013-08-28 22:10:00,
2013-08-28 17:15:00,88.0,73.3,29.12,SW,225,1.3,1.3,62,0.00,,,0.00,VWS V14.01,2013-08-28 22:15:00,
2013-08-28 17:20:00,88.5,73.8,29.12,SE,135,0.0,1.6,62,0.00,,,0.00,VWS V14.01,2013-08-28 22:20:00,
2013-08-28 17:25:00,88.9,72.7,29.12,East,90,2.0,2.0,59,0.00,,,0.00,VWS V14.01,2013-08-28 22:25:00,
2013-08-28 17:30:00,89.2,73.1,29.12,South,180,0.0,0.0,59,0.00,,,0.00,VWS V14.01,2013-08-28 22:30:00,
2013-08-28 17:35:00,89.6,72.9,29.12,South,180,0.0,0.0,58,0.00,,,0.00,VWS V14.01,2013-08-28 22:35:00,
2013-08-28 17:41:00,89.4,73.2,29.12,SSW,202,0.0,0.0,59,0.00,,,0.00,VWS V14.01,2013-08-28 22:41:00,
2013-08-28 17:46:00,88.9,72.7,29.12,SSW,202,0.0,0.0,59,0.00,,,0.00,VWS V14.01,2013-08-28 22:46:00,
2013-08-28 17:51:00,88.3,72.2,29.12,South,180,0.9,2.2,59,0.00,,,0.00,VWS V14.01,2013-08-28 22:51:00,
2013-08-28 17:56:00,88.2,72.5,29.12,South,180,0.0,0.0,60,0.00,,,0.00,VWS V14.01,2013-08-28 22:56:00,
2013-08-28 18:01:00,87.8,72.7,29.12,ESE,112,0.0,0.0,61,0.00,,,0.00,VWS V14.01,2013-08-28 23:01:00,
2013-08-28 18:06:00,87.6,73.0,29.12,ESE,112,0.0,0.0,62,0.00,,,0.00,VWS V14.01,2013-08-28 23:06:00,
2013-08-28 18:11:00,87.4,73.3,29.12,ESE,112,0.0,0.0,63,0.00,,,0.00,VWS V14.01,2013-08-28 23:11:00,
2013-08-28 18:16:00,87.1,73.0,29.12,ESE,112,0.0,0.0,63,0.00,,,0.00,VWS V14.01,2013-08-28 23:16:00,
2013-08-28 18:21:00,86.5,72.9,29.12,SSW,202,0.9,0.9,64,0.00,,,0.00,VWS V14.01,2013-08-28 23:21:00,
2013-08-28 18:26:00,85.6,73.0,29.12,SSW,202,0.9,0.9,66,0.00,,,0.00,VWS V14.01,2013-08-28 23:26:00,
2013-08-28 18:31:00,84.7,72.1,29.12,WNW,292,1.1,1.1,66,0.00,,,0.00,VWS V14.01,2013-08-28 23:31:00,
2013-08-28 18:36:00,83.8,73.0,29.12,WNW,292,0.0,0.0,70,0.00,,,0.00,VWS V14.01,2013-08-28 23:36:00,
2013-08-28 18:41:00,83.3,72.5,29.12,WNW,292,0.0,0.0,70,0.00,,,0.00,VWS V14.01,2013-08-28 23:41:00,
2013-08-28 18:46:00,83.1,72.3,29.12,WNW,292,0.0,0.0,70,0.00,,,0.00,VWS V14.01,2013-08-28 23:46:00,
2013-08-28 18:52:00,82.4,72.9,29.12,WNW,292,0.0,0.0,73,0.00,,,0.00,VWS V14.01,2013-08-28 23:52:00,
2013-08-28 18:57:00,82.0,73.3,29.12,WNW,292,0.0,0.0,75,0.00,,,0.00,VWS V14.01,2013-08-28 23:57:00,
2013-08-28 19:02:00,81.9,73.2,29.12,WNW,292,0.0,0.0,75,0.00,,,0.00,VWS V14.01,2013-08-29 00:02:00,
2013-08-28 19:07:00,81.5,72.8,29.12,WNW,292,0.0,0.0,75,0.00,,,0.00,VWS V14.01,2013-08-29 00:07:00,
2013-08-28 19:12:00,81.1,72.9,29.12,East,90,0.0,0.0,76,0.00,,,0.00,VWS V14.01,2013-08-29 00:12:00,
2013-08-28 19:17:00,81.0,73.1,29.12,East,90,0.0,0.0,77,0.00,,,0.00,VWS V14.01,2013-08-29 00:17:00,
2013-08-28 19:22:00,80.6,72.7,29.12,East,90,0.0,0.0,77,0.00,,,0.00,VWS V14.01,2013-08-29 00:22:00,
2013-08-28 19:27:00,80.4,73.3,29.12,East,90,0.0,0.0,79,0.00,,,0.00,VWS V14.01,2013-08-29 00:27:00,
2013-08-28 19:32:00,79.9,72.8,29.12,East,90,0.0,0.0,79,0.00,,,0.00,VWS V14.01,2013-08-29 00:32:00,
2013-08-28 19:37:00,79.7,73.0,29.12,ENE,68,1.3,1.3,80,0.00,,,0.00,VWS V14.01,2013-08-29 00:37:00,
2013-08-28 19:42:00,79.5,73.2,29.09,East,90,0.0,1.3,81,0.00,,,0.00,VWS V14.01,2013-08-29 00:42:00,
2013-08-28 19:47:00,79.2,73.6,29.09,East,90,0.0,0.0,83,0.00,,,0.00,VWS V14.01,2013-08-29 00:47:00,
2013-08-28 19:52:00,78.8,72.8,29.09,East,90,0.0,0.0,82,0.00,,,0.00,VWS V14.01,2013-08-29 00:52:00,
2013-08-28 19:58:00,78.4,73.2,29.12,East,90,0.0,0.0,84,0.00,,,0.00,VWS V14.01,2013-08-29 00:58:00,
2013-08-28 20:03:00,78.1,73.2,29.12,East,90,0.0,0.0,85,0.00,,,0.00,VWS V14.01,2013-08-29 01:03:00,
2013-08-28 20:08:00,77.9,73.0,29.12,East,90,0.0,0.0,85,0.00,,,0.00,VWS V14.01,2013-08-29 01:08:00,
2013-08-28 20:13:00,77.7,73.2,29.12,East,90,0.0,0.0,86,0.00,,,0.00,VWS V14.01,2013-08-29 01:13:00,
2013-08-28 20:18:00,77.5,73.0,29.12,East,90,0.0,0.0,86,0.00,,,0.00,VWS V14.01,2013-08-29 01:18:00,
2013-08-28 20:23:00,77.4,72.8,29.09,East,90,0.0,0.0,86,0.00,,,0.00,VWS V14.01,2013-08-29 01:23:00,
2013-08-28 20:28:00,77.4,72.8,29.09,East,90,0.0,0.0,86,0.00,,,0.00,VWS V14.01,2013-08-29 01:28:00,
2013-08-28 20:33:00,77.2,73.0,29.09,East,90,0.0,0.0,87,0.00,,,0.00,VWS V14.01,2013-08-29 01:33:00,
2013-08-28 20:38:00,77.2,72.7,29.09,East,90,0.0,0.0,86,0.00,,,0.00,VWS V14.01,2013-08-29 01:38:00,
2013-08-28 20:43:00,77.2,73.0,29.09,East,90,0.0,0.0,87,0.00,,,0.00,VWS V14.01,2013-08-29 01:43:00,
2013-08-28 20:48:00,77.0,72.5,29.09,East,90,0.0,0.0,86,0.00,,,0.00,VWS V14.01,2013-08-29 01:48:00,
2013-08-28 20:53:00,77.2,73.0,29.12,East,90,0.0,0.0,87,0.00,,,0.00,VWS V14.01,2013-08-29 01:53:00,
2013-08-28 20:58:00,77.2,73.0,29.12,East,90,0.0,0.0,87,0.00,,,0.00,VWS V14.01,2013-08-29 01:58:00,
2013-08-28 21:04:00,77.0,72.8,29.12,East,90,0.0,0.0,87,0.00,,,0.00,VWS V14.01,2013-08-29 02:04:00,
2013-08-28 21:09:00,76.8,73.0,29.12,East,90,0.0,0.0,88,0.00,,,0.00,VWS V14.01,2013-08-29 02:09:00,
2013-08-28 21:14:00,76.6,72.8,29.12,East,90,0.0,0.0,88,0.00,,,0.00,VWS V14.01,2013-08-29 02:14:00,
2013-08-28 21:19:00,76.5,72.7,29.12,East,90,0.0,0.0,88,0.00,,,0.00,VWS V14.01,2013-08-29 02:19:00,
2013-08-28 21:24:00,76.3,72.5,29.14,East,90,0.0,0.0,88,0.00,,,0.00,VWS V14.01,2013-08-29 02:24:00,
2013-08-28 21:29:00,76.3,72.5,29.14,East,90,0.0,0.0,88,0.00,,,0.00,VWS V14.01,2013-08-29 02:29:00,
2013-08-28 21:34:00,76.1,72.3,29.14,East,90,0.0,0.0,88,0.00,,,0.00,VWS V14.01,2013-08-29 02:34:00,
2013-08-28 21:39:00,75.9,72.4,29.12,East,90,0.0,0.0,89,0.00,,,0.00,VWS V14.01,2013-08-29 02:39:00,
2013-08-28 21:44:00,75.7,72.3,29.12,East,90,0.0,0.0,89,0.00,,,0.00,VWS V14.01,2013-08-29 02:44:00,
2013-08-28 21:49:00,75.6,72.1,29.12,East,90,0.0,0.0,89,0.00,,,0.00,VWS V14.01,2013-08-29 02:49:00,
2013-08-28 21:55:00,75.4,71.9,29.12,East,90,0.0,0.0,89,0.00,,,0.00,VWS V14.01,2013-08-29 02:55:00,
2013-08-28 22:00:00,75.2,71.7,29.12,East,90,0.0,0.0,89,0.00,,,0.00,VWS V14.01,2013-08-29 03:00:00,
2013-08-28 22:05:00,75.2,71.7,29.12,East,90,0.0,0.0,89,0.00,,,0.00,VWS V14.01,2013-08-29 03:05:00,
2013-08-28 22:10:00,75.0,71.9,29.14,East,90,0.0,0.0,90,0.00,,,0.00,VWS V14.01,2013-08-29 03:10:00,
2013-08-28 22:15:00,74.7,71.5,29.14,East,90,0.0,0.0,90,0.00,,,0.00,VWS V14.01,2013-08-29 03:15:00,
2013-08-28 22:20:00,74.5,71.4,29.14,East,90,0.0,0.0,90,0.00,,,0.00,VWS V14.01,2013-08-29 03:20:00,
2013-08-28 22:25:00,74.5,71.7,29.14,East,90,0.0,0.0,91,0.00,,,0.00,VWS V14.01,2013-08-29 03:25:00,
2013-08-28 22:30:00,74.3,71.5,29.14,East,90,0.0,0.0,91,0.00,,,0.00,VWS V14.01,2013-08-29 03:30:00,
2013-08-28 22:35:00,74.3,71.5,29.14,East,90,0.0,0.0,91,0.00,,,0.00,VWS V14.01,2013-08-29 03:35:00,
2013-08-28 22:40:00,74.1,71.3,29.14,East,90,0.0,0.0,91,0.00,,,0.00,VWS V14.01,2013-08-29 03:40:00,
2013-08-28 22:45:00,74.1,71.7,29.14,East,90,0.0,0.0,92,0.00,,,0.00,VWS V14.01,2013-08-29 03:45:00,
2013-08-28 22:50:00,74.1,71.7,29.14,East,90,0.0,0.0,92,0.00,,,0.00,VWS V14.01,2013-08-29 03:50:00,
2013-08-28 22:56:00,74.1,71.7,29.14,East,90,0.0,0.0,92,0.00,,,0.00,VWS V14.01,2013-08-29 03:56:00,
2013-08-28 23:01:00,74.1,71.7,29.14,East,90,0.0,0.0,92,0.00,,,0.00,VWS V14.01,2013-08-29 04:01:00,
2013-08-28 23:02:00,74.1,71.7,29.14,East,90,0.0,0.0,92,0.00,,,0.00,VWS V14.01,2013-08-29 04:02:00,
2013-08-28 23:04:00,74.1,71.7,29.14,East,90,0.0,0.0,92,0.00,,,0.00,VWS V14.01,2013-08-29 04:04:00,
2013-08-28 23:06:00,74.1,71.7,29.14,East,90,0.0,0.0,92,0.00,,,0.00,VWS V14.01,2013-08-29 04:06:00,
2013-08-28 23:11:00,74.1,71.7,29.14,East,90,0.0,0.0,92,0.00,,,0.00,VWS V14.01,2013-08-29 04:11:00,
2013-08-28 23:16:00,74.1,71.7,29.14,East,90,0.0,0.0,92,0.00,,,0.00,VWS V14.01,2013-08-29 04:16:00,
2013-08-28 23:21:00,73.9,71.5,29.14,East,90,0.0,0.0,92,0.00,,,0.00,VWS V14.01,2013-08-29 04:21:00,
2013-08-28 23:26:00,73.9,71.8,29.14,East,90,0.0,0.0,93,0.00,,,0.00,VWS V14.01,2013-08-29 04:26:00,
2013-08-28 23:31:00,73.8,71.6,29.14,East,90,0.0,0.0,93,0.00,,,0.00,VWS V14.01,2013-08-29 04:31:00,
2013-08-28 23:36:00,73.6,71.4,29.14,East,90,0.0,0.0,93,0.00,,,0.00,VWS V14.01,2013-08-29 04:36:00,
2013-08-28 23:41:00,73.6,71.4,29.14,East,90,0.0,0.0,93,0.00,,,0.00,VWS V14.01,2013-08-29 04:41:00,
2013-08-28 23:46:00,73.4,71.3,29.14,East,90,0.0,0.0,93,0.00,,,0.00,VWS V14.01,2013-08-29 04:46:00,
2013-08-28 23:52:00,73.2,71.4,29.14,East,90,0.0,0.0,94,0.00,,,0.00,VWS V14.01,2013-08-29 04:52:00,
2013-08-28 23:57:00,73.2,71.4,29.14,East,90,0.0,0.0,94,0.00,,,0.00,VWS V14.01,2013-08-29 04:57:00,